Terminal Aerodrome Forecast
Issued by NWS Atlanta, GA

Home | Current Version | Previous Version | Text Only | Print | Product List | Glossary On
Versions: 1 2 3 4 5 6 7 8 9 10 11 12 13 14 15 16
000
FTUS42 KFFC 230805 AAA
TAFCSG
TAF AMD
KCSG 230805Z 2308/2406 00000KT 3SM -SHRA BR BKN007 OVC022
     FM231200 00000KT 3SM BR OVC005
     FM231400 23005KT 5SM SHRA OVC010 PROB30 2318/2324 4SM -TSRA
      OVC025CB
     FM240000 VRB03KT P6SM SHRA OVC050
     FM240500 00000KT P6SM OVC040=

USA.gov is the U.S. government's official web portal to all federal, state and local government web resources and services.